Time;durP1;ratioP1;P1;durP2;ratioP2;P2;SDS_P1;SDS_P2;PMS_P1;PMS_P2;Temp;Humidity;BMP_temperature;BMP_pressure;BME280_temperature;BME280_humidity;BME280_pressure;Samples;Min_cycle;Max_cycle;Signal;HPM_P1;HPM_P2
2022/05/07 00:00:23;;;;;;;15.93;12.67;;;12.80;99.90;;;;;;5067732;28;20214;-43
2022/05/07 00:02:50;;;;;;;12.73;11.43;;;12.80;99.90;;;;;;5069487;28;20225;-43
2022/05/07 00:05:15;;;;;;;13.70;11.90;;;12.80;99.90;;;;;;5069103;28;20193;-42
2022/05/07 00:07:41;;;;;;;12.57;11.37;;;12.70;99.90;;;;;;5056937;28;20486;-42
2022/05/07 00:10:07;;;;;;;12.47;11.20;;;12.70;99.90;;;;;;5068511;28;20544;-40
2022/05/07 00:12:33;;;;;;;13.87;12.47;;;12.60;99.90;;;;;;5069395;28;20201;-42
2022/05/07 00:14:59;;;;;;;11.83;10.43;;;12.50;99.90;;;;;;5068948;28;20423;-42
2022/05/07 00:20:10;;;;;;;13.60;12.27;;;12.40;99.90;;;;;;5068522;28;20438;-42
2022/05/07 00:22:36;;;;;;;12.87;11.57;;;12.40;99.90;;;;;;5058134;28;20444;-42
2022/05/07 00:25:03;;;;;;;12.50;11.30;;;12.40;99.90;;;;;;5067792;28;20926;-41
2022/05/07 00:27:29;;;;;;;17.20;12.37;;;12.50;99.90;;;;;;5067613;28;20470;-43
2022/05/07 00:29:54;;;;;;;13.83;11.90;;;12.50;99.90;;;;;;5068438;28;20478;-43
2022/05/07 00:32:20;;;;;;;12.90;11.60;;;12.60;99.90;;;;;;5069045;28;20510;-41
2022/05/07 00:34:46;;;;;;;13.00;11.23;;;12.60;99.90;;;;;;5069117;28;20192;-43
2022/05/07 00:37:11;;;;;;;12.73;11.17;;;12.50;99.90;;;;;;5060166;28;20197;-43
2022/05/07 00:39:37;;;;;;;11.70;10.60;;;12.50;99.90;;;;;;5066819;28;20280;-42
2022/05/07 00:42:05;;;;;;;14.50;11.50;;;12.40;99.90;;;;;;5068741;28;20679;-42
2022/05/07 00:44:32;;;;;;;12.93;11.50;;;12.40;99.90;;;;;;5069024;28;20287;-43
2022/05/07 00:47:22;;;;;;;16.37;12.40;;;12.50;99.90;;;;;;5068272;28;20485;-43
2022/05/07 00:49:54;;;;;;;12.50;11.23;;;12.40;99.90;;;;;;5074134;28;20449;-41
2022/05/07 00:52:20;;;;;;;12.47;11.23;;;12.30;99.90;;;;;;5069812;28;20949;-42
2022/05/07 00:54:47;;;;;;;12.77;11.47;;;12.20;99.90;;;;;;5068333;28;20420;-42
2022/05/07 00:57:14;;;;;;;13.77;12.23;;;12.20;99.90;;;;;;5066969;28;21001;-42
2022/05/07 00:59:40;;;;;;;13.93;12.53;;;12.40;99.90;;;;;;5068278;28;20427;-42
2022/05/07 01:02:06;;;;;;;13.07;11.70;;;12.50;99.90;;;;;;5068582;28;20435;-42
2022/05/07 01:04:32;;;;;;;13.00;11.70;;;12.50;99.90;;;;;;5068702;28;20929;-43
2022/05/07 01:07:01;;;;;;;13.97;12.27;;;12.40;99.90;;;;;;5062292;28;20480;-43
2022/05/07 01:09:27;;;;;;;12.57;11.27;;;12.30;99.90;;;;;;5065404;28;21351;-43
2022/05/07 01:11:53;;;;;;;13.77;12.40;;;12.30;99.90;;;;;;5067920;28;20437;-43
2022/05/07 01:14:18;;;;;;;12.40;11.13;;;12.20;99.90;;;;;;5068662;28;20427;-43
2022/05/07 01:16:44;;;;;;;13.20;11.90;;;12.10;99.90;;;;;;5068806;28;20193;-42
2022/05/07 01:19:10;;;;;;;14.63;12.37;;;12.00;99.90;;;;;;5068703;28;20632;-41
2022/05/07 01:21:35;;;;;;;14.30;12.80;;;11.90;99.90;;;;;;5065971;28;20263;-43
2022/05/07 01:24:01;;;;;;;14.23;12.43;;;11.90;99.90;;;;;;5057495;28;20182;-43
2022/05/07 01:26:27;;;;;;;15.13;13.53;;;12.00;99.90;;;;;;5071095;28;20185;-42
2022/05/07 01:29:07;;;;;;;14.53;12.83;;;12.30;99.90;;;;;;5072435;28;20805;-43
2022/05/07 01:31:32;;;;;;;14.77;13.27;;;12.40;99.90;;;;;;5071969;28;20196;-42
2022/05/07 01:33:58;;;;;;;17.30;14.10;;;12.50;99.90;;;;;;5072111;28;20419;-42
2022/05/07 01:36:24;;;;;;;14.23;12.73;;;12.40;99.90;;;;;;5072334;28;20187;-42
2022/05/07 01:38:50;;;;;;;13.90;12.50;;;12.30;99.90;;;;;;5058936;28;20184;-42
2022/05/07 01:41:15;;;;;;;14.43;12.87;;;12.20;99.90;;;;;;5070203;28;20203;-42
2022/05/07 01:43:41;;;;;;;14.43;13.13;;;12.10;99.90;;;;;;5071911;28;20184;-42
2022/05/07 01:48:09;;;;;;;14.47;12.97;;;12.10;99.90;;;;;;5072207;28;20276;-43
2022/05/07 01:48:53;;;;;;;13.57;12.20;;;12.00;99.90;;;;;;5075907;28;20337;-41
2022/05/07 01:51:18;;;;;;;14.80;12.23;;;11.90;99.90;;;;;;5091551;28;20546;-43
2022/05/07 01:53:44;;;;;;;15.60;13.07;;;12.00;99.90;;;;;;5072407;28;20535;-43
2022/05/07 01:56:09;;;;;;;14.60;13.10;;;12.10;99.90;;;;;;5071634;28;20192;-43
2022/05/07 01:58:35;;;;;;;14.53;12.87;;;12.10;99.90;;;;;;5071899;28;20213;-42
2022/05/07 02:01:01;;;;;;;14.13;12.63;;;12.10;99.90;;;;;;5071381;28;20648;-43
2022/05/07 02:03:26;;;;;;;13.27;11.80;;;12.10;99.90;;;;;;5071644;28;20550;-42
2022/05/07 02:05:52;;;;;;;14.43;12.97;;;12.20;99.90;;;;;;5071750;28;20192;-42
2022/05/07 02:08:18;;;;;;;13.47;11.93;;;12.20;99.90;;;;;;5062796;28;20213;-42
2022/05/07 02:10:43;;;;;;;14.17;11.87;;;12.40;99.90;;;;;;5070194;28;20272;-42
2022/05/07 02:13:09;;;;;;;14.17;12.60;;;12.40;99.90;;;;;;5071610;28;20220;-43
2022/05/07 02:15:35;;;;;;;14.10;12.60;;;12.30;99.90;;;;;;5071606;28;20200;-43
2022/05/07 02:18:01;;;;;;;15.13;13.53;;;12.10;99.90;;;;;;5071748;28;20819;-43
2022/05/07 02:20:26;;;;;;;14.03;12.60;;;12.00;99.90;;;;;;5070630;28;20431;-42
2022/05/07 02:22:55;;;;;;;14.23;12.63;;;11.90;99.90;;;;;;5063418;28;20676;-42
2022/05/07 02:25:24;;;;;;;14.40;12.67;;;11.80;99.90;;;;;;5067144;28;20201;-42
2022/05/07 02:27:50;;;;;;;15.03;12.87;;;11.80;99.90;;;;;;5065157;28;20962;-43
2022/05/07 02:30:19;;;;;;;12.80;11.10;;;11.70;99.90;;;;;;5070681;28;20542;-42
2022/05/07 02:32:46;;;;;;;16.60;13.80;;;11.70;99.90;;;;;;5071470;28;20442;-43
2022/05/07 02:35:12;;;;;;;14.40;12.20;;;11.70;99.90;;;;;;5070897;28;20434;-42
2022/05/07 02:37:37;;;;;;;14.43;12.30;;;11.70;99.90;;;;;;5067088;28;20949;-43
2022/05/07 02:40:03;;;;;;;14.63;13.03;;;11.70;99.90;;;;;;5081726;28;20306;-43
2022/05/07 02:42:41;;;;;;;14.57;13.07;;;11.80;99.90;;;;;;5071224;28;20239;-43
2022/05/07 02:45:09;;;;;;;14.43;12.93;;;11.90;99.90;;;;;;5071002;28;20434;-43
2022/05/07 02:47:41;;;;;;;15.50;13.07;;;11.80;99.90;;;;;;5070709;28;20466;-42
2022/05/07 02:50:08;;;;;;;13.83;12.10;;;11.80;99.90;;;;;;5088612;28;20418;-43
2022/05/07 02:52:36;;;;;;;16.30;12.40;;;11.90;99.90;;;;;;5083428;28;20443;-40
2022/05/07 02:55:04;;;;;;;13.30;11.90;;;12.00;99.90;;;;;;5067258;28;20439;-42
2022/05/07 02:57:30;;;;;;;13.53;11.57;;;12.10;99.90;;;;;;5070554;28;20447;-43
2022/05/07 02:59:56;;;;;;;14.20;12.30;;;12.10;99.90;;;;;;5085596;28;20424;-43
2022/05/07 03:02:22;;;;;;;11.80;10.60;;;12.00;99.90;;;;;;5070117;28;20221;-42
2022/05/07 03:04:49;;;;;;;14.73;12.63;;;11.90;99.90;;;;;;5070740;28;20420;-42
2022/05/07 03:07:15;;;;;;;13.83;12.43;;;11.80;99.90;;;;;;5069669;28;20458;-42
2022/05/07 03:09:41;;;;;;;14.67;13.10;;;11.80;99.90;;;;;;5061367;28;20422;-43
2022/05/07 03:12:07;;;;;;;15.37;12.93;;;11.80;99.90;;;;;;5068744;28;20435;-42
2022/05/07 03:14:33;;;;;;;15.27;12.63;;;11.70;99.90;;;;;;5070383;28;20185;-42
2022/05/07 03:16:59;;;;;;;13.17;11.73;;;11.70;99.90;;;;;;5070065;28;21015;-43
2022/05/07 03:19:25;;;;;;;15.67;13.53;;;11.60;99.90;;;;;;5070279;28;20192;-42
2022/05/07 03:21:51;;;;;;;14.07;12.67;;;11.50;99.90;;;;;;5068459;28;20434;-42
2022/05/07 03:24:17;;;;;;;14.93;12.47;;;11.50;99.90;;;;;;5058802;28;20439;-43
2022/05/07 03:26:42;;;;;;;14.50;13.00;;;11.30;99.90;;;;;;5068602;28;20238;-42
2022/05/07 03:29:08;;;;;;;16.10;14.47;;;11.30;99.90;;;;;;5068381;28;20192;-42
2022/05/07 03:31:34;;;;;;;15.57;13.40;;;11.30;99.90;;;;;;5069276;28;20430;-43
2022/05/07 03:33:59;;;;;;;15.40;13.50;;;11.30;99.90;;;;;;5069813;28;20177;-42
2022/05/07 03:36:25;;;;;;;14.27;11.80;;;11.60;99.90;;;;;;5070149;28;20195;-43
2022/05/07 03:38:51;;;;;;;15.37;13.10;;;11.40;99.90;;;;;;5060616;28;20198;-42
2022/05/07 03:41:19;;;;;;;17.13;13.73;;;11.30;99.90;;;;;;5064774;28;20242;-43
2022/05/07 03:43:45;;;;;;;15.80;13.10;;;11.30;99.90;;;;;;5069394;28;20680;-43
2022/05/07 03:46:10;;;;;;;13.83;12.43;;;11.10;99.90;;;;;;5069835;28;20480;-42
2022/05/07 03:48:36;;;;;;;14.70;12.47;;;11.00;99.90;;;;;;5072704;28;20461;-43
2022/05/07 03:51:02;;;;;;;14.97;12.70;;;10.90;99.90;;;;;;5089371;28;20185;-43
2022/05/07 03:53:31;;;;;;;15.90;14.20;;;10.90;99.90;;;;;;5075371;28;20189;-42
2022/05/07 03:56:07;;;;;;;14.83;12.90;;;10.80;99.90;;;;;;5062869;28;20429;-42
2022/05/07 03:58:34;;;;;;;20.57;14.37;;;10.80;99.90;;;;;;5066990;28;20427;-43
2022/05/07 04:01:00;;;;;;;16.83;14.63;;;11.00;99.90;;;;;;5069193;28;20416;-43
2022/05/07 04:03:27;;;;;;;15.80;13.13;;;11.00;99.90;;;;;;5069265;28;20428;-42
2022/05/07 04:05:54;;;;;;;17.90;13.60;;;11.10;99.90;;;;;;5069564;28;20439;-43
2022/05/07 04:08:21;;;;;;;17.27;15.03;;;11.30;99.90;;;;;;5063311;28;20478;-43
2022/05/07 04:10:47;;;;;;;16.97;13.37;;;11.30;99.90;;;;;;5065180;28;20433;-42
2022/05/07 04:13:15;;;;;;;15.67;13.10;;;11.30;99.90;;;;;;5069365;28;20507;-41
2022/05/07 04:15:45;;;;;;;14.87;13.17;;;11.50;99.90;;;;;;5069133;28;20514;-42
2022/05/07 04:18:11;;;;;;;15.30;13.57;;;11.40;99.90;;;;;;5069274;28;20933;-41
2022/05/07 04:20:38;;;;;;;19.03;13.80;;;11.50;99.90;;;;;;5068407;28;20427;-43
2022/05/07 04:23:05;;;;;;;19.03;14.20;;;11.40;99.90;;;;;;5065259;28;20790;-40
2022/05/07 04:25:31;;;;;;;18.23;13.37;;;11.40;99.90;;;;;;5061274;28;20424;-42
2022/05/07 04:27:56;;;;;;;15.10;13.37;;;11.30;99.90;;;;;;5069103;28;20477;-40
2022/05/07 04:30:23;;;;;;;18.20;13.90;;;11.30;99.90;;;;;;5068451;28;20420;-43
2022/05/07 04:32:49;;;;;;;17.23;14.30;;;11.40;99.90;;;;;;5069113;28;20189;-43
2022/05/07 04:35:15;;;;;;;16.37;14.23;;;11.70;99.90;;;;;;5068961;28;20427;-43
2022/05/07 04:37:41;;;;;;;22.33;14.37;;;11.70;99.90;;;;;;5069252;28;20193;-43
2022/05/07 04:40:09;;;;;;;16.40;13.30;;;11.70;99.90;;;;;;5056446;28;20466;-43
2022/05/07 04:42:36;;;;;;;17.57;13.17;;;11.80;99.90;;;;;;5068496;28;20212;-43
2022/05/07 04:45:03;;;;;;;16.20;13.67;;;11.80;99.90;;;;;;5071304;28;20431;-43
2022/05/07 04:47:29;;;;;;;16.27;13.93;;;11.80;99.90;;;;;;5079288;28;20467;-42
2022/05/07 04:49:54;;;;;;;17.30;14.27;;;11.80;99.90;;;;;;5084855;28;20422;-42
2022/05/07 04:52:20;;;;;;;19.57;14.27;;;11.90;99.90;;;;;;5089223;28;20192;-43
2022/05/07 04:54:46;;;;;;;16.30;13.47;;;12.00;99.90;;;;;;5062528;28;20184;-40
2022/05/07 04:57:11;;;;;;;16.63;13.70;;;12.00;99.90;;;;;;5067294;28;20242;-43
2022/05/07 04:59:37;;;;;;;20.47;15.10;;;12.00;99.90;;;;;;5069915;28;20196;-42
2022/05/07 05:02:03;;;;;;;20.60;15.60;;;12.00;99.90;;;;;;5072997;28;20196;-42
2022/05/07 05:04:28;;;;;;;16.77;15.03;;;12.10;99.90;;;;;;5073206;28;20251;-42
2022/05/07 05:06:55;;;;;;;20.47;14.80;;;12.20;99.90;;;;;;5072940;28;20823;-43
2022/05/07 05:09:21;;;;;;;17.60;14.37;;;12.20;99.90;;;;;;5062579;28;20605;-43
2022/05/07 05:11:47;;;;;;;18.23;14.40;;;12.30;99.90;;;;;;5071953;28;20499;-42
2022/05/07 05:16:56;;;;;;;17.77;14.43;;;12.40;99.90;;;;;;5072625;28;20496;-42
2022/05/07 05:19:22;;;;;;;18.20;14.10;;;12.40;99.90;;;;;;5072508;28;20423;-41
2022/05/07 05:21:48;;;;;;;17.57;14.30;;;12.40;99.90;;;;;;5070781;28;20180;-42
2022/05/07 05:24:13;;;;;;;17.50;14.20;;;12.40;99.90;;;;;;5063550;28;20189;-43
2022/05/07 05:26:39;;;;;;;16.83;14.27;;;12.60;99.90;;;;;;5070995;28;20710;-42
2022/05/07 05:29:05;;;;;;;20.40;14.43;;;12.70;99.90;;;;;;5071898;28;20193;-43
2022/05/07 05:31:31;;;;;;;15.03;13.43;;;12.80;99.90;;;;;;5071601;28;20217;-42
2022/05/07 05:33:57;;;;;;;17.00;14.90;;;12.90;99.90;;;;;;5070412;28;20822;-43
2022/05/07 05:36:24;;;;;;;18.07;14.50;;;13.00;99.90;;;;;;5071942;28;20221;-41
2022/05/07 05:38:49;;;;;;;19.70;14.27;;;13.00;99.90;;;;;;5066824;28;21235;-42
2022/05/07 05:41:15;;;;;;;15.47;13.87;;;13.10;99.90;;;;;;5066695;28;20435;-43
2022/05/07 05:43:41;;;;;;;18.67;14.40;;;13.20;99.90;;;;;;5071708;28;20185;-43
2022/05/07 05:46:06;;;;;;;15.17;13.57;;;13.20;99.90;;;;;;5071730;28;20272;-42
2022/05/07 05:48:32;;;;;;;17.40;14.23;;;13.30;99.90;;;;;;5076300;28;20298;-40
2022/05/07 05:50:59;;;;;;;18.80;14.40;;;13.40;99.90;;;;;;5090951;28;20536;-43
2022/05/07 05:53:24;;;;;;;18.80;15.10;;;13.60;99.90;;;;;;5089770;28;20545;-42
2022/05/07 05:55:50;;;;;;;17.53;14.93;;;13.70;99.90;;;;;;5063534;28;20502;-43
2022/05/07 05:58:16;;;;;;;21.60;16.47;;;13.90;99.90;;;;;;5071831;28;20205;-43
2022/05/07 06:00:41;;;;;;;21.00;17.00;;;14.00;99.90;;;;;;5071214;28;20598;-43
2022/05/07 06:03:07;;;;;;;19.77;16.97;;;14.20;99.90;;;;;;5070495;28;20239;-42
2022/05/07 06:05:33;;;;;;;24.40;19.03;;;14.30;99.90;;;;;;5071541;28;20185;-42
2022/05/07 06:07:59;;;;;;;24.47;18.60;;;14.50;99.90;;;;;;5071703;28;20583;-42
2022/05/07 06:10:26;;;;;;;20.17;16.37;;;14.70;99.90;;;;;;5072200;28;20816;-43
2022/05/07 06:12:51;;;;;;;24.10;19.70;;;14.80;99.90;;;;;;5071079;28;20424;-42
2022/05/07 06:15:17;;;;;;;27.10;19.90;;;15.00;99.90;;;;;;5087109;28;20785;-42
2022/05/07 06:17:43;;;;;;;27.47;21.10;;;15.20;99.90;;;;;;5071568;28;20223;-42
2022/05/07 06:20:09;;;;;;;27.70;20.73;;;15.40;99.90;;;;;;5070520;28;20219;-42
2022/05/07 06:22:34;;;;;;;28.10;22.07;;;15.50;99.90;;;;;;5067566;28;20242;-42
2022/05/07 06:27:45;;;;;;;28.53;22.70;;;15.80;99.90;;;;;;5070791;28;20236;-42
2022/05/07 06:30:11;;;;;;;25.87;21.10;;;15.90;99.90;;;;;;5071008;28;20473;-43
2022/05/07 06:32:38;;;;;;;28.53;20.97;;;15.90;99.90;;;;;;5083137;28;21091;-43
2022/05/07 06:35:05;;;;;;;27.00;22.00;;;16.00;99.90;;;;;;5078458;28;20535;-43
2022/05/07 06:37:32;;;;;;;24.60;21.53;;;16.10;99.90;;;;;;5075061;28;20992;-42
2022/05/07 06:39:58;;;;;;;26.70;21.47;;;16.00;99.90;;;;;;5070807;28;20438;-43
2022/05/07 06:42:24;;;;;;;26.83;21.30;;;16.00;99.90;;;;;;5073991;28;20977;-43
2022/05/07 06:44:50;;;;;;;24.97;20.33;;;16.10;99.90;;;;;;5085874;28;20450;-43
2022/05/07 06:47:16;;;;;;;28.23;21.53;;;16.10;99.90;;;;;;5071219;28;20540;-42
2022/05/07 06:49:43;;;;;;;28.70;21.30;;;16.20;99.90;;;;;;5083440;28;20885;-42
2022/05/07 06:52:09;;;;;;;29.23;22.80;;;16.40;99.90;;;;;;5091092;28;20874;-42
2022/05/07 06:54:34;;;;;;;26.70;22.27;;;16.50;99.90;;;;;;5076759;28;20436;-41
2022/05/07 06:57:01;;;;;;;26.70;22.67;;;16.60;99.90;;;;;;5027038;28;20437;-43
2022/05/07 06:59:26;;;;;;;27.80;21.93;;;16.60;99.90;;;;;;5066177;28;20208;-43
2022/05/07 07:01:54;;;;;;;29.43;23.60;;;16.70;99.90;;;;;;5067199;28;20455;-43
2022/05/07 07:04:20;;;;;;;26.27;22.07;;;16.70;99.90;;;;;;5075781;28;20296;-43
2022/05/07 07:06:46;;;;;;;26.80;23.30;;;16.70;99.90;;;;;;5077071;28;20416;-41
2022/05/07 07:09:11;;;;;;;31.10;23.10;;;16.70;99.90;;;;;;5068644;28;20436;-42
2022/05/07 07:11:37;;;;;;;28.80;22.50;;;16.60;99.90;;;;;;5076069;28;20594;-42
2022/05/07 07:14:03;;;;;;;25.53;21.90;;;16.60;99.90;;;;;;5061871;28;20284;-43
2022/05/07 07:16:30;;;;;;;26.40;22.30;;;16.60;99.90;;;;;;5070229;28;20191;-42
2022/05/07 07:18:56;;;;;;;29.90;22.27;;;16.60;99.90;;;;;;5066101;28;20477;-43
2022/05/07 07:21:22;;;;;;;26.30;22.20;;;16.70;99.90;;;;;;5069668;28;20910;-43
2022/05/07 07:23:48;;;;;;;24.87;22.10;;;16.70;99.90;;;;;;5069036;28;20438;-42
2022/05/07 07:26:14;;;;;;;24.10;21.13;;;16.80;99.90;;;;;;5059427;28;20212;-43
2022/05/07 07:28:40;;;;;;;24.13;21.60;;;16.90;99.90;;;;;;5065771;28;20871;-41
2022/05/07 07:31:08;;;;;;;28.87;21.80;;;16.90;99.90;;;;;;5069264;28;20427;-42
2022/05/07 07:33:34;;;;;;;24.37;21.43;;;16.90;99.90;;;;;;5069741;28;20781;-42
2022/05/07 07:36:00;;;;;;;22.83;20.43;;;17.00;99.90;;;;;;5070055;28;20423;-42
2022/05/07 07:38:26;;;;;;;25.43;21.37;;;17.00;99.90;;;;;;5084777;28;20426;-42
2022/05/07 07:40:53;;;;;;;24.00;20.80;;;17.10;99.90;;;;;;5074108;28;20632;-42
2022/05/07 07:43:20;;;;;;;26.00;20.30;;;17.10;99.90;;;;;;5069560;28;20419;-41
2022/05/07 07:48:31;;;;;;;23.70;20.60;;;17.40;99.90;;;;;;5075401;28;20469;-42
2022/05/07 07:50:57;;;;;;;24.73;20.50;;;17.40;99.90;;;;;;5089501;28;20446;-41
2022/05/07 07:53:24;;;;;;;24.90;19.90;;;17.50;99.90;;;;;;5090088;28;20422;-42
2022/05/07 07:55:50;;;;;;;25.40;19.73;;;17.60;99.90;;;;;;5065438;28;20439;-42
2022/05/07 07:58:17;;;;;;;26.60;20.67;;;17.70;99.90;;;;;;5067788;28;20554;-41
2022/05/07 08:00:44;;;;;;;20.37;17.90;;;17.80;99.90;;;;;;5068790;28;20467;-43
2022/05/07 08:03:14;;;;;;;24.67;19.50;;;17.80;99.90;;;;;;5069217;28;20438;-42
2022/05/07 08:05:41;;;;;;;21.20;17.10;;;17.90;99.90;;;;;;5069426;28;20474;-43
2022/05/07 08:13:41;;;;;;;22.97;17.83;;;18.10;99.90;;;;;;5065099;28;20463;-43
2022/05/07 08:16:08;;;;;;;23.07;16.43;;;18.20;99.90;;;;;;5069124;28;20419;-42
2022/05/07 08:18:35;;;;;;;24.80;18.13;;;18.30;99.90;;;;;;5069484;28;20497;-43
2022/05/07 08:21:01;;;;;;;23.70;17.80;;;18.40;99.90;;;;;;5068445;28;20423;-43
2022/05/07 08:23:27;;;;;;;23.70;17.50;;;18.50;99.90;;;;;;5069433;28;20517;-43
2022/05/07 08:25:53;;;;;;;20.47;16.90;;;18.50;99.90;;;;;;5059944;28;20443;-42
2022/05/07 08:28:19;;;;;;;19.37;16.80;;;18.50;99.90;;;;;;5069251;28;20731;-41
2022/05/07 08:30:45;;;;;;;20.20;16.83;;;18.60;99.90;;;;;;5068320;28;20427;-42
2022/05/07 08:33:11;;;;;;;20.77;15.93;;;18.70;99.90;;;;;;5067346;28;20991;-42
2022/05/07 08:35:38;;;;;;;20.23;16.83;;;18.80;99.90;;;;;;5066135;28;20439;-43
2022/05/07 08:38:04;;;;;;;20.83;16.87;;;18.90;99.90;;;;;;5067711;28;20446;-42
2022/05/07 08:40:30;;;;;;;22.47;17.20;;;18.90;99.90;;;;;;5059443;28;20534;-42
2022/05/07 08:42:57;;;;;;;22.60;16.83;;;19.00;99.90;;;;;;5061296;28;20423;-43
2022/05/07 08:45:23;;;;;;;20.07;17.17;;;19.00;99.90;;;;;;5068811;28;20514;-42
2022/05/07 08:47:53;;;;;;;22.73;16.80;;;19.10;99.90;;;;;;5066466;28;20509;-43
2022/05/07 08:50:19;;;;;;;18.73;15.77;;;19.20;99.90;;;;;;5070381;28;20450;-43
2022/05/07 08:52:46;;;;;;;21.93;16.50;;;19.30;99.90;;;;;;5061642;28;20430;-43
2022/05/07 08:55:13;;;;;;;24.63;18.60;;;19.30;99.90;;;;;;5064477;28;20463;-42
2022/05/07 08:57:40;;;;;;;24.20;18.77;;;19.40;99.90;;;;;;5060099;28;20454;-43
2022/05/07 09:00:07;;;;;;;21.63;17.87;;;19.40;99.90;;;;;;5068095;28;20427;-42
2022/05/07 09:02:42;;;;;;;24.47;18.70;;;19.40;99.90;;;;;;5068513;28;20422;-42
2022/05/07 09:05:10;;;;;;;22.93;17.87;;;19.50;99.90;;;;;;5064473;28;20508;-41
2022/05/07 09:07:36;;;;;;;22.53;18.23;;;19.60;99.90;;;;;;5066706;28;21044;-43
2022/05/07 09:10:03;;;;;;;22.80;17.87;;;19.60;99.90;;;;;;5063396;28;20462;-43
2022/05/07 09:12:29;;;;;;;22.07;17.90;;;19.70;99.90;;;;;;5064604;28;20427;-40
2022/05/07 09:15:04;;;;;;;23.70;18.40;;;19.80;99.90;;;;;;5068705;28;20426;-42
2022/05/07 09:17:30;;;;;;;20.47;17.13;;;19.90;99.90;;;;;;5067216;28;20442;-42
2022/05/07 09:19:56;;;;;;;21.57;16.50;;;20.00;99.90;;;;;;5066123;28;20439;-42
2022/05/07 09:22:21;;;;;;;25.77;19.40;;;20.20;99.90;;;;;;5066918;28;21017;-42
2022/05/07 09:24:55;;;;;;;21.40;18.70;;;20.30;99.60;;;;;;5054329;28;20653;-42
2022/05/07 09:27:24;;;;;;;23.47;18.30;;;20.40;99.30;;;;;;5067643;28;20303;-42
2022/05/07 09:30:03;;;;;;;24.10;19.20;;;20.50;99.10;;;;;;5069969;28;20427;-42
2022/05/07 09:32:37;;;;;;;26.13;21.40;;;20.60;99.30;;;;;;5064199;28;20458;-43
2022/05/07 09:37:59;;;;;;;28.60;21.03;;;20.80;98.20;;;;;;5067346;28;20419;-42
2022/05/07 09:40:25;;;;;;;25.10;19.93;;;21.00;97.80;;;;;;5062336;28;20436;-42
2022/05/07 09:42:52;;;;;;;28.07;21.50;;;21.10;98.20;;;;;;5067143;28;20435;-42
2022/05/07 09:45:19;;;;;;;23.97;20.57;;;21.20;98.60;;;;;;5068332;28;20192;-42
2022/05/07 09:47:45;;;;;;;24.47;21.70;;;21.30;97.10;;;;;;5070061;28;20478;-42
2022/05/07 09:50:20;;;;;;;27.20;20.97;;;21.50;97.50;;;;;;5078752;28;20833;-42
2022/05/07 09:58:17;;;;;;;27.37;23.37;;;21.70;96.40;;;;;;5070988;28;20529;-43
2022/05/07 10:00:58;;;;;;;29.40;24.27;;;21.70;96.20;;;;;;5071497;28;20937;-43
2022/05/07 10:03:34;;;;;;;26.53;23.63;;;21.70;95.90;;;;;;5072147;28;20419;-42
2022/05/07 10:06:04;;;;;;;24.97;21.73;;;21.70;95.10;;;;;;5071687;28;20435;-42
2022/05/07 10:08:44;;;;;;;33.83;24.53;;;21.70;95.60;;;;;;5071949;28;21070;-40
2022/05/07 10:11:13;;;;;;;25.13;21.93;;;21.80;95.90;;;;;;5064804;28;20444;-42
2022/05/07 10:13:38;;;;;;;29.63;24.63;;;21.90;95.90;;;;;;5070050;28;20493;-42
2022/05/07 10:16:04;;;;;;;27.47;24.50;;;22.00;95.20;;;;;;5071443;28;20432;-42
2022/05/07 10:18:36;;;;;;;28.50;25.37;;;22.00;94.90;;;;;;5070363;28;20200;-41
2022/05/07 10:21:17;;;;;;;25.17;22.37;;;21.90;95.20;;;;;;5070708;28;20781;-43
2022/05/07 10:23:52;;;;;;;28.63;25.60;;;21.90;96.30;;;;;;5071566;28;20472;-42
2022/05/07 10:26:20;;;;;;;28.53;25.43;;;21.90;95.60;;;;;;5062353;28;20443;-42
2022/05/07 10:28:46;;;;;;;29.30;26.17;;;21.70;95.40;;;;;;5071014;28;20465;-43
2022/05/07 10:31:22;;;;;;;29.87;25.57;;;21.60;94.80;;;;;;5070817;28;20788;-42
2022/05/07 10:33:50;;;;;;;28.70;24.80;;;21.50;95.00;;;;;;5069942;28;20427;-43
2022/05/07 10:36:16;;;;;;;29.80;26.63;;;21.40;95.80;;;;;;5080871;28;20514;-43
2022/05/07 10:38:44;;;;;;;31.50;26.57;;;21.30;95.90;;;;;;5091392;28;20764;-42
2022/05/07 10:41:12;;;;;;;31.43;27.80;;;21.40;95.70;;;;;;5075070;28;20455;-42
2022/05/07 10:43:42;;;;;;;33.37;29.70;;;21.40;95.80;;;;;;5069430;28;20453;-41
2022/05/07 10:46:14;;;;;;;27.70;24.30;;;21.40;95.60;;;;;;5067931;28;20427;-42
2022/05/07 10:48:45;;;;;;;31.30;26.90;;;21.40;96.20;;;;;;5075465;28;21127;-43
2022/05/07 10:51:21;;;;;;;29.53;26.47;;;21.30;95.80;;;;;;5083585;28;20433;-42
2022/05/07 10:53:48;;;;;;;28.20;25.23;;;21.30;95.80;;;;;;5089722;28;20457;-43
2022/05/07 10:56:18;;;;;;;25.37;22.60;;;21.30;95.80;;;;;;5076836;28;20456;-43
2022/05/07 10:58:49;;;;;;;26.40;23.13;;;21.20;96.10;;;;;;5070011;28;20442;-42
2022/05/07 11:01:16;;;;;;;28.20;23.73;;;21.10;96.70;;;;;;5070103;28;20911;-42
2022/05/07 11:03:41;;;;;;;26.80;23.97;;;21.10;96.20;;;;;;5086167;28;20439;-43
2022/05/07 11:06:07;;;;;;;25.43;22.83;;;21.10;95.80;;;;;;5070733;28;20443;-42
2022/05/07 11:08:35;;;;;;;25.70;21.07;;;21.10;96.00;;;;;;5070540;28;20213;-42
2022/05/07 11:11:08;;;;;;;22.87;20.40;;;21.20;96.70;;;;;;5065909;28;20193;-42
2022/05/07 11:13:54;;;;;;;23.73;20.50;;;21.40;96.30;;;;;;5060791;28;20425;-43
2022/05/07 11:16:21;;;;;;;22.83;20.40;;;21.60;96.50;;;;;;5070571;28;20848;-43
2022/05/07 11:18:51;;;;;;;22.97;20.00;;;21.70;95.40;;;;;;5070509;28;20941;-42
2022/05/07 11:21:18;;;;;;;22.43;20.10;;;21.70;95.20;;;;;;5069889;28;20439;-43
2022/05/07 11:23:44;;;;;;;21.07;18.37;;;21.60;94.30;;;;;;5070315;28;20478;-43
2022/05/07 11:26:16;;;;;;;22.83;19.27;;;21.60;94.30;;;;;;5067449;28;20504;-43
2022/05/07 11:28:43;;;;;;;21.83;19.53;;;21.50;94.40;;;;;;5066202;28;20506;-43
2022/05/07 11:31:30;;;;;;;22.70;20.30;;;21.50;94.70;;;;;;5068162;28;20427;-42
2022/05/07 11:34:07;;;;;;;20.80;18.70;;;21.50;95.00;;;;;;5068840;28;20442;-42
2022/05/07 11:36:34;;;;;;;18.80;16.80;;;21.40;95.20;;;;;;5070300;28;20827;-42
2022/05/07 11:39:08;;;;;;;23.53;21.03;;;21.50;95.30;;;;;;5069699;28;20426;-42
2022/05/07 11:41:35;;;;;;;21.70;19.50;;;21.40;95.10;;;;;;5060890;28;20440;-42
2022/05/07 11:46:56;;;;;;;21.33;18.90;;;21.40;94.80;;;;;;5068289;28;20424;-42
2022/05/07 11:49:33;;;;;;;19.23;17.23;;;21.40;94.70;;;;;;5071472;28;21170;-42
2022/05/07 11:52:10;;;;;;;19.87;17.73;;;21.50;95.00;;;;;;5090020;28;21180;-42
2022/05/07 11:54:36;;;;;;;20.47;18.47;;;21.50;94.60;;;;;;5089903;28;20454;-42
2022/05/07 11:57:03;;;;;;;20.23;18.13;;;21.50;94.70;;;;;;5071150;28;20459;-43
2022/05/07 11:59:29;;;;;;;21.27;19.07;;;21.60;94.10;;;;;;5081947;28;20419;-42
2022/05/07 12:01:55;;;;;;;20.73;18.53;;;21.70;94.20;;;;;;5069322;28;20430;-43
2022/05/07 12:04:30;;;;;;;18.80;16.83;;;21.80;93.70;;;;;;5069413;28;20177;-43
2022/05/07 12:06:56;;;;;;;21.20;15.43;;;21.90;93.80;;;;;;5068324;28;20844;-43
2022/05/07 12:09:22;;;;;;;17.60;15.90;;;22.00;94.80;;;;;;5068839;28;20428;-43
2022/05/07 12:11:49;;;;;;;17.43;15.60;;;22.10;93.50;;;;;;5060627;28;20182;-42
2022/05/07 12:14:14;;;;;;;19.63;15.37;;;22.10;93.30;;;;;;5066422;28;20192;-42
2022/05/07 12:19:27;;;;;;;18.47;16.17;;;22.10;95.30;;;;;;5069448;28;20774;-43
2022/05/07 12:30:07;;;;;;;14.93;12.80;;;22.00;94.00;;;;;;5064840;28;20457;-42
2022/05/07 12:32:33;;;;;;;13.67;12.27;;;21.90;94.20;;;;;;5069280;28;20423;-42
2022/05/07 12:34:59;;;;;;;17.13;12.20;;;21.90;94.10;;;;;;5069177;28;20439;-42
2022/05/07 12:37:25;;;;;;;13.47;12.17;;;21.80;93.80;;;;;;5068963;28;20780;-42
2022/05/07 12:39:50;;;;;;;12.40;11.20;;;21.80;93.80;;;;;;5068646;28;20189;-41
2022/05/07 12:42:16;;;;;;;13.07;11.87;;;21.80;92.90;;;;;;5059921;28;20188;-41
2022/05/07 12:44:43;;;;;;;14.30;12.93;;;21.80;92.90;;;;;;5067990;28;20195;-42
2022/05/07 12:47:10;;;;;;;13.70;12.50;;;21.60;92.60;;;;;;5067314;28;20199;-43
2022/05/07 12:49:36;;;;;;;12.07;10.97;;;21.50;93.60;;;;;;5082209;28;20437;-42
2022/05/07 12:52:03;;;;;;;15.80;14.40;;;21.40;94.10;;;;;;5074653;28;20449;-42
2022/05/07 12:54:30;;;;;;;21.67;18.83;;;21.40;94.80;;;;;;5089002;28;20530;-42
2022/05/07 12:56:55;;;;;;;20.63;18.23;;;21.30;98.20;;;;;;5077487;28;20901;-43
2022/05/07 12:59:21;;;;;;;22.13;19.93;;;21.20;99.90;;;;;;5064665;28;20513;-42
2022/05/07 13:01:47;;;;;;;21.77;19.57;;;21.20;99.90;;;;;;5066648;28;20189;-42
2022/05/07 13:04:12;;;;;;;22.10;19.97;;;21.00;99.90;;;;;;5068682;28;20195;-42
2022/05/07 13:06:38;;;;;;;22.17;19.90;;;20.80;99.90;;;;;;5068619;28;20806;-43